createdAt,value
2022-08-25T00:00:48.192Z,71.00
2022-08-25T00:03:19.525Z,71.07
2022-08-25T00:05:50.583Z,71.43
2022-08-25T00:08:20.519Z,72.32
2022-08-25T00:11:03.171Z,71.45
2022-08-25T00:13:32.552Z,70.87
2022-08-25T00:16:01.406Z,70.97
2022-08-25T00:18:31.358Z,73.22
2022-08-25T00:21:01.654Z,72.05
2022-08-25T00:23:31.307Z,73.74
2022-08-25T00:26:02.915Z,73.68
2022-08-25T00:28:32.488Z,73.45
2022-08-25T00:31:02.240Z,72.64
2022-08-25T00:33:32.781Z,74.27
2022-08-25T00:36:03.117Z,73.60
2022-08-25T00:38:33.178Z,72.45
2022-08-25T00:41:11.749Z,69.70
2022-08-25T00:43:47.978Z,71.62
2022-08-25T00:46:21.927Z,72.04
2022-08-25T00:48:57.887Z,71.09
2022-08-25T00:51:36.023Z,73.61
2022-08-25T00:54:06.482Z,75.89
2022-08-25T00:56:38.426Z,75.61
2022-08-25T00:59:08.982Z,71.41
2022-08-25T01:01:37.109Z,69.77
2022-08-25T01:04:07.910Z,68.23
2022-08-25T01:06:41.108Z,68.52
2022-08-25T01:09:11.220Z,70.51
2022-08-25T01:11:43.382Z,69.62
2022-08-25T01:14:17.596Z,69.83
2022-08-25T01:16:46.759Z,72.19
2022-08-25T01:19:21.083Z,75.10
2022-08-25T01:21:54.398Z,76.81
2022-08-25T01:24:31.375Z,74.42
2022-08-25T01:27:01.603Z,75.72
2022-08-25T01:29:31.495Z,76.11
2022-08-25T01:32:02.448Z,77.60
2022-08-25T01:34:33.337Z,77.34
2022-08-25T01:37:04.744Z,76.97
2022-08-25T01:39:37.231Z,76.06
2022-08-25T01:42:26.444Z,75.46
2022-08-25T01:44:56.499Z,75.71
2022-08-25T01:47:26.174Z,74.99
2022-08-25T01:49:55.714Z,77.49
2022-08-25T01:52:31.718Z,78.17
2022-08-25T01:55:00.837Z,78.56
2022-08-25T01:57:31.773Z,79.85
2022-08-25T02:00:01.073Z,80.19
2022-08-25T02:02:42.540Z,80.32
2022-08-25T02:05:13.569Z,79.88
2022-08-25T02:07:45.652Z,79.02
2022-08-25T02:10:15.604Z,79.75
2022-08-25T02:12:44.759Z,78.47
2022-08-25T02:15:16.179Z,78.40
2022-08-25T02:17:45.229Z,80.07
2022-08-25T02:20:14.100Z,80.73
2022-08-25T02:22:53.037Z,79.99
2022-08-25T02:25:26.604Z,80.38
2022-08-25T02:27:56.213Z,78.14
2022-08-25T02:30:24.975Z,77.97
2022-08-25T02:32:53.817Z,75.83
2022-08-25T02:35:23.256Z,73.01
2022-08-25T02:37:55.485Z,72.91
2022-08-25T02:40:24.887Z,72.71
2022-08-25T02:42:53.693Z,71.26
2022-08-25T02:45:22.781Z,70.65
2022-08-25T02:47:51.935Z,72.00
2022-08-25T02:50:21.352Z,71.51
2022-08-25T02:52:51.536Z,71.00
2022-08-25T02:55:22.643Z,72.59
2022-08-25T02:57:51.140Z,72.10
2022-08-25T03:00:20.591Z,71.55
2022-08-25T03:02:49.716Z,71.35
2022-08-25T03:05:27.638Z,71.42
2022-08-25T03:07:59.090Z,70.95
2022-08-25T03:10:28.001Z,70.20
2022-08-25T03:12:57.035Z,69.75
2022-08-25T03:15:28.051Z,68.83
2022-08-25T03:17:59.986Z,69.08
2022-08-25T03:20:30.507Z,70.59
2022-08-25T03:22:59.302Z,74.56
2022-08-25T03:25:45.766Z,72.19
2022-08-25T03:28:15.326Z,71.76
2022-08-25T03:30:44.818Z,71.29
2022-08-25T03:33:13.813Z,71.52
2022-08-25T03:35:44.827Z,74.47
2022-08-25T03:38:13.351Z,72.34
2022-08-25T03:40:41.703Z,73.42
2022-08-25T03:43:10.428Z,73.13
2022-08-25T03:45:42.718Z,74.14
2022-08-25T03:48:11.923Z,73.43
2022-08-25T03:50:50.527Z,73.78
2022-08-25T03:53:21.550Z,74.30
2022-08-25T03:55:52.105Z,74.65
2022-08-25T03:58:21.610Z,77.53
2022-08-25T04:00:51.367Z,77.47
2022-08-25T04:03:21.168Z,76.36
2022-08-25T04:05:51.888Z,74.11
2022-08-25T04:08:20.983Z,74.08
2022-08-25T04:10:50.297Z,74.22
2022-08-25T04:13:19.928Z,75.06
2022-08-25T04:15:49.529Z,77.09
2022-08-25T04:18:19.237Z,78.49
2022-08-25T04:20:48.930Z,75.37
2022-08-25T04:23:19.968Z,73.86
2022-08-25T04:25:49.484Z,73.45
2022-08-25T04:28:18.744Z,77.00
2022-08-25T04:30:50.295Z,74.88
2022-08-25T04:33:21.450Z,73.40
2022-08-25T04:35:51.524Z,74.05
2022-08-25T04:38:22.621Z,75.50
2022-08-25T04:40:58.034Z,76.28
2022-08-25T04:43:27.079Z,76.49
2022-08-25T04:45:56.360Z,77.68
2022-08-25T04:48:26.258Z,76.94
2022-08-25T04:50:55.435Z,76.43
2022-08-25T04:53:25.634Z,75.91
2022-08-25T04:55:54.619Z,77.74
2022-08-25T04:58:23.393Z,76.22
2022-08-25T05:00:52.816Z,76.51
2022-08-25T05:03:22.053Z,74.97
2022-08-25T05:05:54.404Z,74.24
2022-08-25T05:08:25.325Z,74.54
2022-08-25T05:10:56.856Z,75.68
2022-08-25T05:13:27.233Z,74.33
2022-08-25T05:15:57.760Z,73.95
2022-08-25T05:18:31.564Z,73.06
2022-08-25T05:21:04.291Z,72.45
2022-08-25T05:23:34.964Z,72.05
2022-08-25T05:26:07.099Z,72.54
2022-08-25T05:28:36.491Z,72.36
2022-08-25T05:31:06.708Z,73.14
2022-08-25T05:33:36.706Z,72.37
2022-08-25T05:36:06.587Z,71.52
2022-08-25T05:38:36.968Z,72.22
2022-08-25T05:41:09.167Z,72.63
2022-08-25T05:43:38.620Z,71.77
2022-08-25T05:46:08.370Z,70.92
2022-08-25T05:48:37.406Z,71.10
2022-08-25T05:51:08.744Z,71.88
2022-08-25T05:53:44.720Z,71.77
2022-08-25T05:56:15.607Z,72.51
2022-08-25T05:58:46.011Z,71.58
2022-08-25T06:01:43.587Z,72.18
2022-08-25T06:04:14.184Z,71.33
2022-08-25T06:06:43.260Z,72.06
2022-08-25T06:09:14.002Z,72.74
2022-08-25T06:11:43.224Z,73.51
2022-08-25T06:14:13.129Z,73.24
2022-08-25T06:16:42.186Z,72.88
2022-08-25T06:19:12.051Z,72.25
2022-08-25T06:21:41.480Z,71.16
2022-08-25T06:24:15.797Z,70.60
2022-08-25T06:26:45.499Z,69.98
2022-08-25T06:29:15.237Z,70.93
2022-08-25T06:31:44.328Z,70.66
2022-08-25T06:34:13.727Z,69.96
2022-08-25T06:36:43.153Z,69.07
2022-08-25T06:39:18.859Z,69.40
2022-08-25T06:41:46.861Z,69.97
2022-08-25T06:44:19.109Z,69.77
2022-08-25T06:46:48.570Z,69.98
2022-08-25T06:49:18.359Z,69.00
2022-08-25T06:51:51.141Z,68.44
2022-08-25T06:54:21.992Z,68.07
2022-08-25T06:56:53.500Z,67.68
2022-08-25T06:59:24.284Z,66.99
2022-08-25T07:02:01.203Z,66.12
2022-08-25T07:04:32.245Z,66.52
2022-08-25T07:07:01.186Z,65.99
2022-08-25T07:09:30.928Z,66.81
2022-08-25T07:11:59.848Z,66.75
2022-08-25T07:14:28.753Z,65.90
2022-08-25T07:16:58.571Z,67.02
2022-08-25T07:19:28.932Z,67.41
2022-08-25T07:21:58.175Z,67.88
2022-08-25T07:24:26.910Z,66.33
2022-08-25T07:26:56.337Z,66.34
2022-08-25T07:29:32.705Z,64.86
2022-08-25T07:32:03.164Z,63.30
2022-08-25T07:34:51.852Z,61.77
2022-08-25T07:37:48.781Z,61.41
2022-08-25T07:40:17.942Z,60.43
2022-08-25T07:42:49.769Z,60.92
2022-08-25T07:45:21.177Z,60.17
2022-08-25T07:47:58.264Z,58.21
2022-08-25T07:50:28.078Z,57.87
2022-08-25T07:52:57.518Z,57.29
2022-08-25T07:55:32.656Z,56.24
2022-08-25T07:58:03.056Z,55.01
2022-08-25T08:00:34.344Z,55.00
2022-08-25T08:03:08.053Z,53.45
2022-08-25T08:05:38.541Z,54.06
2022-08-25T08:08:07.922Z,57.06
2022-08-25T08:11:03.243Z,54.04
2022-08-25T08:13:31.311Z,54.78
2022-08-25T08:16:00.231Z,52.14
2022-08-25T08:18:29.162Z,51.03
2022-08-25T08:20:57.677Z,51.28
2022-08-25T08:23:29.033Z,50.94
2022-08-25T08:25:58.456Z,49.74
2022-08-25T08:28:28.192Z,49.29
2022-08-25T08:30:58.837Z,49.33
2022-08-25T08:33:29.084Z,49.08
2022-08-25T08:35:59.490Z,50.69
2022-08-25T08:38:33.941Z,49.51
2022-08-25T08:41:48.928Z,47.80
2022-08-25T08:44:33.762Z,47.00
2022-08-25T08:47:15.919Z,46.50
2022-08-25T08:49:54.173Z,49.48
2022-08-25T08:52:30.195Z,46.11
2022-08-25T08:55:05.636Z,45.02
2022-08-25T08:57:39.594Z,44.83
2022-08-25T09:00:10.634Z,44.37
2022-08-25T09:02:51.397Z,45.04
2022-08-25T09:05:24.545Z,44.21
2022-08-25T09:07:58.919Z,43.47
2022-08-25T09:10:35.047Z,42.50
2022-08-25T09:13:15.464Z,43.30
2022-08-25T09:16:10.115Z,41.33
2022-08-25T09:18:57.954Z,41.24
2022-08-25T09:21:36.080Z,43.44
2022-08-25T09:24:29.043Z,44.52
2022-08-25T09:27:11.265Z,43.24
2022-08-25T09:29:55.004Z,41.68
2022-08-25T09:32:31.604Z,41.50
2022-08-25T09:35:04.354Z,41.07
2022-08-25T09:37:33.421Z,40.47
2022-08-25T09:40:02.317Z,39.81
2022-08-25T09:42:49.749Z,42.97
2022-08-25T09:45:36.539Z,41.24
2022-08-25T09:48:21.638Z,42.70
2022-08-25T09:50:55.988Z,41.24
2022-08-25T09:53:25.643Z,39.20
2022-08-25T09:56:01.449Z,38.86
2022-08-25T09:58:30.304Z,39.34
2022-08-25T10:01:14.579Z,39.31
2022-08-25T10:03:59.677Z,42.38
2022-08-25T10:06:35.168Z,39.42
2022-08-25T10:09:07.978Z,38.87
2022-08-25T10:11:41.649Z,38.03
2022-08-25T10:14:28.373Z,38.37
2022-08-25T10:17:17.140Z,37.97
2022-08-25T10:19:45.755Z,39.39
2022-08-25T10:22:24.431Z,37.75
2022-08-25T10:24:53.527Z,37.61
2022-08-25T10:27:29.785Z,40.07
2022-08-25T10:30:19.741Z,39.79
2022-08-25T10:33:14.143Z,38.82
2022-08-25T10:35:59.400Z,38.02
2022-08-25T10:38:43.107Z,36.51
2022-08-25T10:41:32.604Z,37.05
2022-08-25T10:44:32.771Z,38.26
2022-08-25T10:47:17.710Z,40.60
2022-08-25T10:49:50.139Z,40.48
2022-08-25T10:52:25.690Z,38.56
2022-08-25T10:55:00.841Z,38.06
2022-08-25T10:57:36.334Z,38.32
2022-08-25T11:00:11.245Z,39.07
2022-08-25T11:03:03.240Z,37.34
2022-08-25T11:05:40.934Z,37.39
2022-08-25T11:08:15.835Z,36.79
2022-08-25T11:10:50.511Z,38.50
2022-08-25T11:13:25.583Z,37.76
2022-08-25T11:16:16.455Z,38.75
2022-08-25T11:18:54.768Z,36.27
2022-08-25T11:21:30.292Z,37.44
2022-08-25T11:24:07.114Z,37.15
2022-08-25T11:26:45.459Z,36.99
2022-08-25T11:29:18.609Z,35.85
2022-08-25T11:31:53.592Z,35.22
2022-08-25T11:34:23.969Z,36.24
2022-08-25T11:36:56.648Z,36.17
2022-08-25T11:39:41.271Z,37.26
2022-08-25T11:42:23.086Z,36.38
2022-08-25T11:45:05.482Z,34.81
2022-08-25T11:47:47.294Z,35.71
2022-08-25T11:50:31.494Z,34.17
2022-08-25T11:53:17.342Z,33.72
2022-08-25T11:55:51.832Z,37.31
2022-08-25T11:58:35.878Z,36.58
2022-08-25T12:01:07.388Z,34.87
2022-08-25T12:03:53.702Z,35.77
2022-08-25T12:06:28.524Z,36.37
2022-08-25T12:09:23.071Z,35.87
2022-08-25T12:11:55.171Z,36.70
2022-08-25T12:14:48.162Z,35.11
2022-08-25T12:17:40.034Z,35.21
2022-08-25T12:20:09.451Z,35.43
2022-08-25T12:22:58.966Z,35.11
2022-08-25T12:25:46.594Z,34.27
2022-08-25T12:28:37.524Z,34.17
2022-08-25T12:31:19.401Z,33.32
2022-08-25T12:34:02.914Z,34.41
2022-08-25T12:36:34.899Z,34.48
2022-08-25T12:39:31.374Z,36.27
2022-08-25T12:42:04.035Z,35.62
2022-08-25T12:44:40.925Z,35.02
2022-08-25T12:47:28.559Z,34.54
2022-08-25T12:50:31.947Z,34.83
2022-08-25T12:53:11.645Z,34.54
2022-08-25T12:55:43.390Z,38.76
2022-08-25T12:58:14.375Z,36.47
2022-08-25T13:01:07.682Z,37.34
2022-08-25T13:04:17.915Z,35.66
2022-08-25T13:07:13.304Z,36.78
2022-08-25T13:10:25.106Z,35.64
2022-08-25T13:13:01.947Z,37.91
2022-08-25T13:15:37.890Z,35.77
2022-08-25T13:18:19.867Z,34.74
2022-08-25T13:20:54.359Z,35.51
2022-08-25T13:23:29.937Z,34.63
2022-08-25T13:25:59.758Z,35.52
2022-08-25T13:28:32.485Z,35.89
2022-08-25T13:31:10.606Z,36.23
2022-08-25T13:33:39.496Z,36.56
2022-08-25T13:36:35.789Z,35.44
2022-08-25T13:39:16.277Z,34.91
2022-08-25T13:41:56.734Z,35.06
2022-08-25T13:44:29.788Z,35.02
2022-08-25T13:47:09.732Z,35.24
2022-08-25T13:49:40.514Z,35.53
2022-08-25T13:52:21.089Z,36.06
2022-08-25T13:54:59.972Z,36.11
2022-08-25T13:57:33.620Z,36.48
2022-08-25T14:00:06.292Z,36.15
2022-08-25T14:02:44.966Z,36.39
2022-08-25T14:05:36.132Z,36.55
2022-08-25T14:08:16.180Z,36.36
2022-08-25T14:11:14.544Z,36.54
2022-08-25T14:13:44.876Z,35.99
2022-08-25T14:16:17.581Z,35.71
2022-08-25T14:18:52.572Z,36.24
2022-08-25T14:21:26.181Z,36.82
2022-08-25T14:23:58.633Z,37.13
2022-08-25T14:26:29.164Z,37.41
2022-08-25T14:28:59.643Z,37.10
2022-08-25T14:31:31.906Z,37.42
2022-08-25T14:34:06.050Z,37.55
2022-08-25T14:36:36.002Z,38.58
2022-08-25T14:39:07.030Z,38.16
2022-08-25T14:41:41.416Z,38.68
2022-08-25T14:44:11.792Z,38.75
2022-08-25T14:46:47.334Z,38.21
2022-08-25T14:49:24.848Z,38.74
2022-08-25T14:51:55.387Z,38.67
2022-08-25T14:54:28.749Z,38.41
2022-08-25T14:56:58.529Z,38.28
2022-08-25T14:59:27.224Z,38.00
2022-08-25T15:01:56.690Z,37.59
2022-08-25T15:04:30.541Z,37.79
2022-08-25T15:07:23.185Z,38.96
2022-08-25T15:09:53.255Z,38.06
2022-08-25T15:12:46.014Z,38.22
2022-08-25T15:15:12.614Z,37.01
2022-08-25T15:17:44.439Z,37.75
2022-08-25T15:20:13.757Z,37.67
2022-08-25T15:22:45.646Z,37.85
2022-08-25T15:25:16.223Z,37.92
2022-08-25T15:27:47.366Z,38.70
2022-08-25T15:30:17.493Z,38.39
2022-08-25T15:32:48.570Z,38.26
2022-08-25T15:35:18.092Z,38.23
2022-08-25T15:37:48.364Z,37.83
2022-08-25T15:40:17.687Z,38.40
2022-08-25T15:42:46.804Z,38.50
2022-08-25T15:45:16.040Z,38.64
2022-08-25T15:47:45.012Z,38.06
2022-08-25T15:50:17.147Z,37.83
2022-08-25T15:52:47.557Z,37.76
2022-08-25T15:55:20.101Z,37.99
2022-08-25T15:57:49.651Z,37.38
2022-08-25T16:00:21.499Z,36.53
2022-08-25T16:02:50.234Z,37.54
2022-08-25T16:05:25.139Z,37.47
2022-08-25T16:07:54.499Z,37.03
2022-08-25T16:10:24.712Z,38.69
2022-08-25T16:12:53.737Z,37.95
2022-08-25T16:15:23.757Z,37.27
2022-08-25T16:17:53.725Z,37.41
2022-08-25T16:20:24.691Z,37.71
2022-08-25T16:22:54.175Z,37.52
2022-08-25T16:25:25.644Z,37.29
2022-08-25T16:27:54.742Z,38.00
2022-08-25T16:30:24.094Z,37.60
2022-08-25T16:32:52.994Z,37.62
2022-08-25T16:35:22.072Z,37.78
2022-08-25T16:37:51.317Z,38.25
2022-08-25T16:40:22.839Z,37.83
2022-08-25T16:42:52.974Z,38.36
2022-08-25T16:45:22.380Z,38.09
2022-08-25T16:47:52.036Z,38.32
2022-08-25T16:50:20.930Z,37.88
2022-08-25T16:53:07.801Z,38.49
2022-08-25T16:55:39.442Z,39.37
2022-08-25T16:58:12.666Z,38.51
2022-08-25T17:00:43.809Z,37.80
2022-08-25T17:03:14.484Z,38.32
2022-08-25T17:05:44.744Z,38.63
2022-08-25T17:08:32.500Z,38.32
2022-08-25T17:11:09.551Z,38.87
2022-08-25T17:13:44.477Z,39.66
2022-08-25T17:16:15.447Z,39.86
2022-08-25T17:18:47.762Z,39.06
2022-08-25T17:21:23.934Z,39.52
2022-08-25T17:23:53.882Z,39.61
2022-08-25T17:26:27.865Z,40.41
2022-08-25T17:29:00.655Z,40.26
2022-08-25T17:31:31.049Z,40.45
2022-08-25T17:33:59.851Z,40.20
2022-08-25T17:36:28.911Z,40.90
2022-08-25T17:38:59.665Z,40.38
2022-08-25T17:41:28.200Z,40.41
2022-08-25T17:43:58.820Z,40.89
2022-08-25T17:46:28.052Z,40.42
2022-08-25T17:48:57.005Z,41.16
2022-08-25T17:51:29.733Z,41.72
2022-08-25T17:54:02.678Z,41.33
2022-08-25T17:56:32.396Z,41.94
2022-08-25T17:59:02.259Z,41.80
2022-08-25T18:01:34.667Z,41.49
2022-08-25T18:04:03.244Z,42.27
2022-08-25T18:06:33.785Z,42.52
2022-08-25T18:09:04.885Z,42.81
2022-08-25T18:11:33.976Z,42.86
2022-08-25T18:14:03.995Z,43.47
2022-08-25T18:16:33.391Z,42.89
2022-08-25T18:19:02.515Z,43.87
2022-08-25T18:21:32.101Z,44.10
2022-08-25T18:24:02.956Z,44.38
2022-08-25T18:26:32.385Z,43.99
2022-08-25T18:29:01.875Z,45.27
2022-08-25T18:31:32.901Z,45.29
2022-08-25T18:34:02.232Z,46.37
2022-08-25T18:36:31.435Z,46.20
2022-08-25T18:39:17.759Z,46.50
2022-08-25T18:41:47.045Z,46.97
2022-08-25T18:44:18.961Z,47.08
2022-08-25T18:46:49.390Z,47.39
2022-08-25T18:49:19.049Z,46.98
2022-08-25T18:51:49.782Z,47.21
2022-08-25T18:54:23.196Z,47.52
2022-08-25T18:56:54.937Z,47.91
2022-08-25T18:59:24.060Z,47.76
2022-08-25T19:01:56.329Z,47.56
2022-08-25T19:04:31.514Z,47.69
2022-08-25T19:07:03.009Z,47.90
2022-08-25T19:09:33.203Z,48.31
2022-08-25T19:12:02.213Z,48.58
2022-08-25T19:14:31.600Z,48.57
2022-08-25T19:17:02.048Z,48.48
2022-08-25T19:19:31.630Z,49.03
2022-08-25T19:22:00.897Z,48.84
2022-08-25T19:24:32.813Z,48.54
2022-08-25T19:27:02.866Z,49.79
2022-08-25T19:29:32.736Z,50.94
2022-08-25T19:32:03.308Z,53.15
2022-08-25T19:34:35.073Z,53.14
2022-08-25T19:37:06.224Z,54.01
2022-08-25T19:39:40.210Z,53.28
2022-08-25T19:42:37.000Z,53.15
2022-08-25T19:45:00.069Z,52.41
2022-08-25T19:47:31.491Z,51.82
2022-08-25T19:50:01.146Z,51.65
2022-08-25T19:52:29.837Z,51.10
2022-08-25T19:55:00.158Z,51.45
2022-08-25T19:57:42.630Z,51.79
2022-08-25T20:00:17.327Z,52.68
2022-08-25T20:02:47.293Z,52.93
2022-08-25T20:05:23.947Z,53.21
2022-08-25T20:07:54.468Z,52.84
2022-08-25T20:10:24.947Z,52.68
2022-08-25T20:12:56.139Z,56.34
2022-08-25T20:15:26.255Z,55.59
2022-08-25T20:17:56.622Z,54.74
2022-08-25T20:20:25.594Z,54.78
2022-08-25T20:23:15.654Z,54.19
2022-08-25T20:25:45.304Z,54.01
2022-08-25T20:28:18.652Z,53.39
2022-08-25T20:30:48.184Z,53.66
2022-08-25T20:33:22.554Z,54.17
2022-08-25T20:35:53.216Z,54.03
2022-08-25T20:38:22.770Z,53.82
2022-08-25T20:40:51.464Z,53.82
2022-08-25T20:43:20.781Z,54.86
2022-08-25T20:45:50.126Z,55.39
2022-08-25T20:48:20.431Z,57.22
2022-08-25T20:50:54.528Z,56.34
2022-08-25T20:53:27.253Z,56.77
2022-08-25T20:55:56.427Z,58.57
2022-08-25T20:58:26.394Z,57.72
2022-08-25T21:00:58.388Z,58.03
2022-08-25T21:03:28.602Z,57.75
2022-08-25T21:05:57.584Z,58.12
2022-08-25T21:08:26.079Z,58.28
2022-08-25T21:10:54.893Z,57.36
2022-08-25T21:13:24.287Z,58.12
2022-08-25T21:15:52.895Z,57.96
2022-08-25T21:18:22.078Z,57.82
2022-08-25T21:20:55.364Z,59.09
2022-08-25T21:23:27.483Z,57.91
2022-08-25T21:25:56.350Z,57.68
2022-08-25T21:28:27.934Z,57.56
2022-08-25T21:30:57.006Z,59.02
2022-08-25T21:33:26.388Z,58.29
2022-08-25T21:35:59.475Z,59.58
2022-08-25T21:38:29.224Z,61.77
2022-08-25T21:40:59.065Z,60.98
2022-08-25T21:43:28.039Z,59.13
2022-08-25T21:46:00.114Z,58.15
2022-08-25T21:48:28.400Z,57.76
2022-08-25T21:51:07.295Z,58.68
2022-08-25T21:53:38.701Z,59.44
2022-08-25T21:56:08.982Z,61.80
2022-08-25T21:58:40.495Z,61.91
2022-08-25T22:01:11.398Z,61.41
2022-08-25T22:03:41.451Z,62.27
2022-08-25T22:06:14.215Z,62.99
2022-08-25T22:08:44.968Z,64.71
2022-08-25T22:11:17.301Z,65.52
2022-08-25T22:13:50.398Z,66.53
2022-08-25T22:16:20.178Z,67.38
2022-08-25T22:18:50.773Z,64.30
2022-08-25T22:21:23.048Z,61.93
2022-08-25T22:23:52.108Z,62.79
2022-08-25T22:26:22.085Z,65.26
2022-08-25T22:28:51.346Z,63.51
2022-08-25T22:31:21.165Z,62.93
2022-08-25T22:33:50.856Z,62.75
2022-08-25T22:36:26.767Z,62.41
2022-08-25T22:38:56.670Z,64.86
2022-08-25T22:41:26.910Z,68.05
2022-08-25T22:43:58.248Z,67.09
2022-08-25T22:46:31.335Z,64.77
2022-08-25T22:49:00.873Z,63.30
2022-08-25T22:51:32.058Z,62.81
2022-08-25T22:54:02.694Z,62.79
2022-08-25T22:56:34.320Z,63.54
2022-08-25T22:59:06.262Z,66.63
2022-08-25T23:01:36.593Z,66.55
2022-08-25T23:04:07.372Z,64.43
2022-08-25T23:06:38.174Z,64.86
2022-08-25T23:09:09.622Z,64.23
2022-08-25T23:11:39.393Z,63.61
2022-08-25T23:14:11.244Z,63.31
2022-08-25T23:16:41.945Z,65.05
2022-08-25T23:19:13.749Z,65.26
2022-08-25T23:22:16.203Z,65.62
2022-08-25T23:24:47.748Z,65.86
2022-08-25T23:27:19.101Z,64.95
2022-08-25T23:29:50.932Z,64.93
2022-08-25T23:32:20.546Z,65.49
2022-08-25T23:34:49.131Z,64.49
2022-08-25T23:37:20.257Z,63.91
2022-08-25T23:39:50.168Z,64.69
2022-08-25T23:42:20.990Z,63.89
2022-08-25T23:44:50.585Z,64.93
2022-08-25T23:47:19.663Z,64.18
2022-08-25T23:49:49.601Z,64.47
2022-08-25T23:52:19.802Z,63.90
2022-08-25T23:54:49.104Z,64.41
2022-08-25T23:57:18.901Z,65.49
2022-08-25T23:59:47.699Z,65.26
